createdAt,value
2022-12-12T00:01:04.683Z,97615.34
2022-12-12T00:03:54.013Z,97614.47
2022-12-12T00:06:41.998Z,97609.38
2022-12-12T00:09:30.006Z,97611.97
2022-12-12T00:12:17.988Z,97610.31
2022-12-12T00:15:06.748Z,97609.47
2022-12-12T00:17:56.345Z,97607.72
2022-12-12T00:20:44.101Z,97615.53
2022-12-12T00:23:32.165Z,97619.06
2022-12-12T00:26:24.495Z,97620.72
2022-12-12T00:29:12.791Z,97610.41
2022-12-12T00:32:00.819Z,97618.22
2022-12-12T00:34:50.319Z,97613.22
2022-12-12T00:37:38.423Z,97617.69
2022-12-12T00:40:26.478Z,97615.91
2022-12-12T00:43:14.583Z,97623.63
2022-12-12T00:46:03.163Z,97620.09
2022-12-12T00:48:51.078Z,97627.06
2022-12-12T00:51:40.271Z,97631.34
2022-12-12T00:54:28.104Z,97632.28
2022-12-12T00:57:16.056Z,97629.88
2022-12-12T01:00:04.575Z,97623.72
2022-12-12T01:02:52.788Z,97624.66
2022-12-12T01:05:40.596Z,97630.63
2022-12-12T01:08:29.879Z,97625.50
2022-12-12T01:11:19.060Z,97627.28
2022-12-12T01:14:07.640Z,97636.84
2022-12-12T01:16:55.404Z,97633.41
2022-12-12T01:19:43.487Z,97635.19
2022-12-12T01:22:31.531Z,97636.13
2022-12-12T01:25:21.624Z,97642.13
2022-12-12T01:28:10.202Z,97644.84
2022-12-12T01:30:58.367Z,97649.13
2022-12-12T01:33:47.143Z,97651.75
2022-12-12T01:36:35.282Z,97649.03
2022-12-12T01:39:23.147Z,97655.16
2022-12-12T01:42:15.450Z,97653.41
2022-12-12T01:45:03.783Z,97657.75
2022-12-12T01:47:51.499Z,97650.91
2022-12-12T01:50:40.342Z,97654.44
2022-12-12T01:53:30.735Z,97657.03
2022-12-12T01:56:22.448Z,97658.81
2022-12-12T01:59:16.590Z,97656.19
2022-12-12T02:02:07.663Z,97659.66
2022-12-12T02:04:55.976Z,97657.97
2022-12-12T02:07:44.059Z,97663.16
2022-12-12T02:10:32.266Z,97665.75
2022-12-12T02:13:25.289Z,97670.06
2022-12-12T02:16:26.136Z,97679.53
2022-12-12T02:19:37.255Z,97676.09
2022-12-12T02:22:38.277Z,97673.56
2022-12-12T02:25:49.828Z,97673.56
2022-12-12T02:29:00.780Z,97677.88
2022-12-12T02:31:55.047Z,97672.66
2022-12-12T02:34:50.344Z,97676.94
2022-12-12T02:37:46.721Z,97678.69
2022-12-12T02:40:41.503Z,97670.06
2022-12-12T02:43:35.818Z,97671.91
2022-12-12T02:46:33.986Z,97673.56
2022-12-12T02:49:28.116Z,97679.63
2022-12-12T02:52:20.103Z,97671.72
2022-12-12T02:55:08.930Z,97686.50
2022-12-12T02:57:57.235Z,97680.47
2022-12-12T03:01:11.564Z,97680.47
2022-12-12T03:04:22.313Z,97688.19
2022-12-12T03:07:38.099Z,97690.06
2022-12-12T03:10:44.000Z,97689.19
2022-12-12T03:13:56.418Z,97686.59
2022-12-12T03:16:50.873Z,97694.41
2022-12-12T03:19:43.605Z,97689.19
2022-12-12T03:22:41.690Z,97691.91
2022-12-12T03:25:36.727Z,97690.16
2022-12-12T03:28:47.226Z,97687.53
2022-12-12T03:31:41.470Z,97686.69
2022-12-12T03:34:35.406Z,97690.25
2022-12-12T03:37:26.815Z,97688.47
2022-12-12T03:40:20.606Z,97691.09
2022-12-12T03:43:15.848Z,97690.25
2022-12-12T03:46:10.773Z,97689.38
2022-12-12T03:49:04.828Z,97688.47
2022-12-12T03:52:00.100Z,97695.44
2022-12-12T03:54:53.240Z,97690.25
2022-12-12T03:58:07.904Z,97699.00
2022-12-12T04:01:00.404Z,97694.59
2022-12-12T04:03:57.927Z,97690.34
2022-12-12T04:06:51.700Z,97695.53
2022-12-12T04:09:57.383Z,97700.75
2022-12-12T04:13:03.367Z,97700.00
2022-12-12T04:16:05.338Z,97700.13
2022-12-12T04:18:59.368Z,97701.88
2022-12-12T04:22:15.375Z,97707.16
2022-12-12T04:25:10.925Z,97707.25
2022-12-12T04:28:06.116Z,97702.06
2022-12-12T04:30:54.410Z,97700.41
2022-12-12T04:33:51.948Z,97705.59
2022-12-12T04:36:42.236Z,97710.81
2022-12-12T04:39:31.580Z,97711.72
2022-12-12T04:42:24.738Z,97712.66
2022-12-12T04:45:16.727Z,97713.50
2022-12-12T04:48:06.971Z,97717.88
2022-12-12T04:50:56.871Z,97718.72
2022-12-12T04:53:49.778Z,97720.66
2022-12-12T04:56:43.805Z,97723.25
2022-12-12T04:59:32.288Z,97717.28
2022-12-12T05:02:32.283Z,97730.31
2022-12-12T05:05:26.198Z,97726.13
2022-12-12T05:08:21.016Z,97727.06
2022-12-12T05:11:09.473Z,97734.97
2022-12-12T05:13:57.197Z,97733.19
2022-12-12T05:16:48.586Z,97736.72
2022-12-12T05:19:37.892Z,97729.88
2022-12-12T05:22:26.120Z,97729.97
2022-12-12T05:25:14.802Z,97733.59
2022-12-12T05:28:02.719Z,97737.09
2022-12-12T05:30:53.261Z,97741.56
2022-12-12T05:33:41.336Z,97737.47
2022-12-12T05:36:30.842Z,97742.03
2022-12-12T05:39:19.168Z,97742.22
2022-12-12T05:42:07.131Z,97741.53
2022-12-12T05:44:55.186Z,97749.63
2022-12-12T05:47:50.626Z,97754.19
2022-12-12T05:50:38.668Z,97744.03
2022-12-12T05:53:27.827Z,97747.84
2022-12-12T05:56:15.834Z,97753.31
2022-12-12T05:59:03.451Z,97751.88
2022-12-12T06:02:06.432Z,97757.38
2022-12-12T06:04:54.736Z,97756.78
2022-12-12T06:07:42.676Z,97765.88
2022-12-12T06:10:32.103Z,97765.28
2022-12-12T06:13:19.755Z,97761.19
2022-12-12T06:16:08.949Z,97761.38
2022-12-12T06:18:57.723Z,97763.38
2022-12-12T06:21:50.788Z,97758.34
2022-12-12T06:24:38.676Z,97765.59
2022-12-12T06:27:28.128Z,97764.19
2022-12-12T06:30:16.279Z,97774.75
2022-12-12T06:33:04.276Z,97778.34
2022-12-12T06:36:00.409Z,97778.63
2022-12-12T06:38:48.549Z,97784.88
2022-12-12T06:41:36.548Z,97779.94
2022-12-12T06:44:25.781Z,97776.69
2022-12-12T06:47:13.596Z,97779.53
2022-12-12T06:50:04.604Z,97790.09
2022-12-12T06:52:52.798Z,97795.44
2022-12-12T06:55:43.811Z,97799.16
2022-12-12T06:58:31.917Z,97798.38
2022-12-12T07:01:25.113Z,97802.88
2022-12-12T07:04:14.394Z,97799.63
2022-12-12T07:07:02.488Z,97807.50
2022-12-12T07:10:23.709Z,97806.81
2022-12-12T07:13:11.724Z,97806.09
2022-12-12T07:15:59.755Z,97802.63
2022-12-12T07:18:52.068Z,97808.75
2022-12-12T07:21:40.362Z,97814.94
2022-12-12T07:24:28.505Z,97814.19
2022-12-12T07:27:21.806Z,97816.03
2022-12-12T07:30:12.412Z,97817.69
2022-12-12T07:33:15.808Z,97819.38
2022-12-12T07:36:06.247Z,97827.25
2022-12-12T07:38:59.836Z,97819.53
2022-12-12T07:41:47.864Z,97833.25
2022-12-12T07:46:03.617Z,97834.97
2022-12-12T07:49:49.784Z,97837.47
2022-12-12T07:52:42.872Z,97836.47
2022-12-12T07:55:32.907Z,97844.19
2022-12-12T07:58:20.874Z,97838.06
2022-12-12T08:01:15.066Z,97847.53
2022-12-12T08:04:06.395Z,97846.63
2022-12-12T08:07:01.678Z,97849.91
2022-12-12T08:10:01.342Z,97847.22
2022-12-12T08:12:49.450Z,97848.03
2022-12-12T08:15:37.578Z,97853.25
2022-12-12T08:18:25.479Z,97855.75
2022-12-12T08:21:23.213Z,97859.94
2022-12-12T08:24:15.279Z,97859.94
2022-12-12T08:27:05.142Z,97856.44
2022-12-12T08:29:53.738Z,97863.31
2022-12-12T08:32:41.863Z,97858.13
2022-12-12T08:35:32.548Z,97862.38
2022-12-12T08:38:20.487Z,97867.56
2022-12-12T08:41:09.820Z,97864.91
2022-12-12T08:43:59.325Z,97863.16
2022-12-12T08:46:47.216Z,97866.50
2022-12-12T08:49:36.295Z,97865.50
2022-12-12T08:52:24.376Z,97869.69
2022-12-12T08:55:12.314Z,97863.50
2022-12-12T08:58:00.130Z,97869.53
2022-12-12T09:00:49.457Z,97869.38
2022-12-12T09:03:37.196Z,97869.19
2022-12-12T09:06:27.136Z,97877.75
2022-12-12T09:09:15.341Z,97878.34
2022-12-12T09:12:03.649Z,97887.47
2022-12-12T09:14:51.944Z,97881.63
2022-12-12T09:17:41.211Z,97886.31
2022-12-12T09:20:29.181Z,97894.41
2022-12-12T09:23:17.483Z,97892.34
2022-12-12T09:26:09.673Z,97899.22
2022-12-12T09:28:57.618Z,97895.22
2022-12-12T09:31:45.503Z,97905.94
2022-12-12T09:34:35.174Z,97899.47
2022-12-12T09:37:23.368Z,97896.25
2022-12-12T09:40:19.016Z,97901.69
2022-12-12T09:43:07.462Z,97908.06
2022-12-12T09:45:55.584Z,97909.94
2022-12-12T09:48:46.378Z,97908.41
2022-12-12T09:51:37.553Z,97908.72
2022-12-12T09:54:27.837Z,97909.28
2022-12-12T10:00:59.943Z,97906.59
2022-12-12T10:03:57.306Z,97896.19
2022-12-12T10:06:52.208Z,97899.09
2022-12-12T10:09:54.135Z,97897.78
2022-12-12T10:12:42.412Z,97904.59
2022-12-12T10:15:36.431Z,97904.94
2022-12-12T10:18:29.893Z,97906.22
2022-12-12T10:21:22.893Z,97905.66
2022-12-12T10:24:24.743Z,97903.94
2022-12-12T10:27:18.290Z,97901.09
2022-12-12T10:30:16.934Z,97897.72
2022-12-12T10:33:17.607Z,97896.53
2022-12-12T10:36:16.885Z,97893.19
2022-12-12T10:39:17.576Z,97898.25
2022-12-12T10:42:14.022Z,97894.50
2022-12-12T10:45:24.709Z,97891.50
2022-12-12T10:48:12.960Z,97891.19
2022-12-12T10:51:04.495Z,97887.44
2022-12-12T10:53:55.429Z,97887.28
2022-12-12T10:57:06.129Z,97882.75
2022-12-12T10:59:58.548Z,97881.16
2022-12-12T11:02:48.850Z,97871.00
2022-12-12T11:05:40.770Z,97871.91
2022-12-12T11:08:33.543Z,97867.69
2022-12-12T11:11:23.566Z,97877.50
2022-12-12T11:14:28.383Z,97874.69
2022-12-12T11:17:28.071Z,97876.06
2022-12-12T11:20:20.362Z,97877.94
2022-12-12T11:23:18.473Z,97868.31
2022-12-12T11:26:13.351Z,97873.78
2022-12-12T11:29:07.809Z,97874.22
2022-12-12T11:31:57.370Z,97873.00
2022-12-12T11:34:50.387Z,97878.69
2022-12-12T11:37:40.416Z,97877.44
2022-12-12T11:40:41.955Z,97878.81
2022-12-12T11:43:31.614Z,97869.94
2022-12-12T11:46:23.104Z,97877.31
2022-12-12T11:49:21.018Z,97870.00
2022-12-12T11:52:21.396Z,97866.03
2022-12-12T11:55:16.006Z,97868.25
2022-12-12T11:58:21.398Z,97861.66
2022-12-12T12:01:16.966Z,97857.69
2022-12-12T12:04:26.760Z,97863.34
2022-12-12T12:07:31.995Z,97861.16
2022-12-12T12:10:40.731Z,97866.81
2022-12-12T12:13:50.016Z,97863.56
2022-12-12T12:16:49.861Z,97870.06
2022-12-12T12:19:46.502Z,97864.19
2022-12-12T12:22:48.795Z,97869.63
2022-12-12T12:25:45.265Z,97873.41
2022-12-12T12:28:59.100Z,97871.94
2022-12-12T12:31:58.713Z,97873.81
2022-12-12T12:35:00.570Z,97874.13
2022-12-12T12:38:07.052Z,97869.00
2022-12-12T12:41:22.420Z,97874.34
2022-12-12T12:44:23.873Z,97871.97
2022-12-12T12:47:22.964Z,97872.97
2022-12-12T12:50:22.739Z,97874.88
2022-12-12T12:53:26.750Z,97875.81
2022-12-12T12:56:26.926Z,97877.81
2022-12-12T12:59:19.467Z,97876.09
2022-12-12T13:02:26.949Z,97866.72
2022-12-12T13:05:21.854Z,97863.34
2022-12-12T13:08:21.043Z,97869.53
2022-12-12T13:11:11.712Z,97874.94
2022-12-12T13:14:10.819Z,97869.00
2022-12-12T13:17:06.377Z,97871.81
2022-12-12T13:19:57.498Z,97873.69
2022-12-12T13:22:58.435Z,97879.88
2022-12-12T13:25:55.510Z,97879.03
2022-12-12T13:28:48.693Z,97873.06
2022-12-12T13:32:01.771Z,97878.38
2022-12-12T13:34:52.558Z,97884.56
2022-12-12T13:37:48.848Z,97877.56
2022-12-12T13:40:42.414Z,97879.31
2022-12-12T13:43:42.443Z,97880.06
2022-12-12T13:46:43.139Z,97879.13
2022-12-12T13:49:40.332Z,97881.53
2022-12-12T13:52:33.250Z,97877.06
2022-12-12T13:55:23.645Z,97877.25
2022-12-12T13:58:32.569Z,97870.88
2022-12-12T14:01:40.469Z,97878.81
2022-12-12T14:04:30.888Z,97875.91
2022-12-12T14:07:23.739Z,97885.72
2022-12-12T14:10:25.978Z,97885.81
2022-12-12T14:13:19.514Z,97888.22
2022-12-12T14:16:08.833Z,97879.47
2022-12-12T14:19:08.741Z,97886.34
2022-12-12T14:21:57.148Z,97888.00
2022-12-12T14:24:59.410Z,97889.72
2022-12-12T14:28:19.168Z,97889.72
2022-12-12T14:31:15.927Z,97888.00
2022-12-12T14:34:17.518Z,97882.88
2022-12-12T14:37:37.388Z,97884.69
2022-12-12T14:40:30.658Z,97883.09
2022-12-12T14:43:25.360Z,97885.28
2022-12-12T14:46:17.333Z,97877.75
2022-12-12T14:49:06.816Z,97880.78
2022-12-12T14:51:58.935Z,97881.69
2022-12-12T14:54:46.709Z,97870.06
2022-12-12T14:57:35.529Z,97875.69
2022-12-12T15:00:25.536Z,97887.44
2022-12-12T15:03:14.725Z,97881.72
2022-12-12T15:06:30.934Z,97874.25
2022-12-12T15:09:24.535Z,97879.47
2022-12-12T15:12:18.760Z,97878.19
2022-12-12T15:15:23.028Z,97882.72
2022-12-12T15:18:13.076Z,97878.38
2022-12-12T15:21:01.183Z,97879.66
2022-12-12T15:23:49.109Z,97883.28
2022-12-12T15:26:37.097Z,97895.47
2022-12-12T15:29:27.074Z,97895.09
2022-12-12T15:32:20.522Z,97894.03
2022-12-12T15:35:18.104Z,97899.06
2022-12-12T15:38:12.620Z,97909.31
2022-12-12T15:41:06.645Z,97902.22
2022-12-12T15:43:58.002Z,97901.47
2022-12-12T15:46:47.399Z,97903.09
2022-12-12T15:49:40.305Z,97893.94
2022-12-12T15:52:30.273Z,97901.59
2022-12-12T15:55:24.832Z,97898.34
2022-12-12T15:58:29.170Z,97890.53
2022-12-12T16:01:22.274Z,97907.19
2022-12-12T16:04:23.748Z,97907.38
2022-12-12T16:07:22.301Z,97905.91
2022-12-12T16:10:29.565Z,97906.94
2022-12-12T16:13:26.276Z,97916.72
2022-12-12T16:16:37.407Z,97917.22
2022-12-12T16:19:37.927Z,97911.53
2022-12-12T16:22:33.649Z,97918.06
2022-12-12T16:25:23.612Z,97919.00
2022-12-12T16:28:24.975Z,97919.16
2022-12-12T16:31:18.399Z,97923.94
2022-12-12T16:34:06.540Z,97924.22
2022-12-12T16:36:54.490Z,97920.13
2022-12-12T16:39:42.548Z,97925.72
2022-12-12T16:42:30.856Z,97920.13
2022-12-12T16:45:20.452Z,97927.56
2022-12-12T16:48:15.884Z,97929.78
2022-12-12T16:51:06.210Z,97936.13
2022-12-12T16:53:54.386Z,97932.22
2022-12-12T16:56:42.485Z,97929.19
2022-12-12T16:59:30.527Z,97928.75
2022-12-12T17:02:22.793Z,97922.31
2022-12-12T17:05:18.439Z,97933.97
2022-12-12T17:08:06.847Z,97933.59
2022-12-12T17:11:09.916Z,97930.59
2022-12-12T17:13:58.986Z,97943.22
2022-12-12T17:16:46.843Z,97937.59
2022-12-12T17:19:36.233Z,97937.22
2022-12-12T17:22:24.162Z,97930.00
2022-12-12T17:25:12.431Z,97935.63
2022-12-12T17:28:01.112Z,97930.94
2022-12-12T17:30:50.849Z,97925.50
2022-12-12T17:33:49.473Z,97918.03
2022-12-12T17:36:39.596Z,97929.78
2022-12-12T17:39:27.425Z,97932.78
2022-12-12T17:42:15.498Z,97934.03
2022-12-12T17:45:03.430Z,97938.72
2022-12-12T17:47:53.328Z,97944.31
2022-12-12T17:50:42.028Z,97944.84
2022-12-12T17:53:36.620Z,97951.25
2022-12-12T17:56:29.993Z,97952.50
2022-12-12T17:59:21.428Z,97958.94
2022-12-12T18:02:13.223Z,97960.19
2022-12-12T18:05:04.134Z,97956.97
2022-12-12T18:07:51.854Z,97962.63
2022-12-12T18:10:41.311Z,97956.91
2022-12-12T18:13:29.525Z,97959.91
2022-12-12T18:16:36.479Z,97962.78
2022-12-12T18:19:27.198Z,97964.78
2022-12-12T18:22:15.002Z,97960.81
2022-12-12T18:25:03.164Z,97961.09
2022-12-12T18:28:01.322Z,97957.13
2022-12-12T18:30:51.133Z,97962.63
2022-12-12T18:33:39.166Z,97965.59
2022-12-12T18:36:30.033Z,97965.72
2022-12-12T18:39:18.343Z,97967.81
2022-12-12T18:42:06.651Z,97966.28
2022-12-12T18:44:56.055Z,97970.06
2022-12-12T18:47:47.727Z,97979.91
2022-12-12T18:50:35.651Z,97973.25
2022-12-12T18:53:23.879Z,97970.09
2022-12-12T18:56:14.876Z,97958.28
2022-12-12T18:59:04.409Z,97958.41
2022-12-12T19:01:53.951Z,97966.47
2022-12-12T19:04:44.258Z,97970.94
2022-12-12T19:07:32.448Z,97973.00
2022-12-12T19:10:20.345Z,97974.19
2022-12-12T19:13:08.177Z,97977.13
2022-12-12T19:15:57.915Z,97973.81
2022-12-12T19:18:47.887Z,97975.66
2022-12-12T19:21:36.397Z,97974.09
2022-12-12T19:24:24.199Z,97973.47
2022-12-12T19:27:12.491Z,97976.28
2022-12-12T19:30:00.499Z,97979.97
2022-12-12T19:32:49.080Z,97975.00
2022-12-12T19:35:39.463Z,97979.47
2022-12-12T19:38:27.433Z,97974.41
2022-12-12T19:41:17.010Z,97973.72
2022-12-12T19:44:08.782Z,97973.94
2022-12-12T19:46:56.994Z,97975.94
2022-12-12T19:49:44.730Z,97978.72
2022-12-12T19:52:34.190Z,97983.28
2022-12-12T19:55:21.920Z,97982.47
2022-12-12T19:58:10.035Z,97987.91
2022-12-12T20:00:58.085Z,97978.66
2022-12-12T20:03:50.895Z,97991.75
2022-12-12T20:06:45.548Z,97985.91
2022-12-12T20:09:36.943Z,97988.72
2022-12-12T20:12:24.806Z,97987.16
2022-12-12T20:15:12.985Z,97990.78
2022-12-12T20:18:02.118Z,97988.28
2022-12-12T20:20:53.766Z,97996.22
2022-12-12T20:23:47.025Z,97990.25
2022-12-12T20:26:36.677Z,97985.31
2022-12-12T20:29:24.611Z,97989.75
2022-12-12T20:32:13.756Z,97992.50
2022-12-12T20:35:01.721Z,97988.44
2022-12-12T20:37:49.818Z,97982.53
2022-12-12T20:40:40.658Z,97980.13
2022-12-12T20:43:30.827Z,97976.78
2022-12-12T20:46:21.464Z,97981.28
2022-12-12T20:49:11.836Z,97983.25
2022-12-12T20:51:59.952Z,97985.94
2022-12-12T20:54:48.092Z,97987.78
2022-12-12T20:57:36.018Z,97995.66
2022-12-12T21:00:26.667Z,98001.94
2022-12-12T21:03:14.822Z,97998.53
2022-12-12T21:06:02.921Z,97996.88
2022-12-12T21:08:52.155Z,97992.75
2022-12-12T21:11:42.639Z,97998.03
2022-12-12T21:14:32.933Z,97995.63
2022-12-12T21:17:22.449Z,97997.41
2022-12-12T21:20:10.870Z,97990.63
2022-12-12T21:22:59.392Z,97990.72
2022-12-12T21:25:47.081Z,97982.31
2022-12-12T21:28:35.384Z,97984.13
2022-12-12T21:31:25.563Z,97977.38
2022-12-12T21:34:16.479Z,97984.34
2022-12-12T21:37:04.133Z,97974.25
2022-12-12T21:39:54.599Z,97980.38
2022-12-12T21:42:42.366Z,97981.31
2022-12-12T21:45:30.590Z,97977.97
2022-12-12T21:48:18.529Z,97977.22
2022-12-12T21:51:10.597Z,97975.66
2022-12-12T21:53:58.381Z,97981.91
2022-12-12T21:56:46.980Z,97970.84
2022-12-12T21:59:37.289Z,97969.94
2022-12-12T22:02:25.291Z,97959.78
2022-12-12T22:05:13.405Z,97971.91
2022-12-12T22:08:03.858Z,97973.81
2022-12-12T22:10:54.483Z,97977.41
2022-12-12T22:13:43.517Z,97975.75
2022-12-12T22:16:33.682Z,97981.94
2022-12-12T22:19:21.797Z,97980.25
2022-12-12T22:22:09.511Z,97973.44
2022-12-12T22:24:58.895Z,97975.16
2022-12-12T22:27:46.512Z,97970.97
2022-12-12T22:30:34.567Z,97974.50
2022-12-12T22:33:22.835Z,97978.00
2022-12-12T22:36:12.718Z,97980.69
2022-12-12T22:39:01.653Z,97976.50
2022-12-12T22:41:53.555Z,97968.00
2022-12-12T22:44:41.530Z,97968.88
2022-12-12T22:47:29.548Z,97966.41
2022-12-12T22:50:18.090Z,97973.38
2022-12-12T22:53:06.195Z,97972.63
2022-12-12T22:55:54.054Z,97971.88
2022-12-12T22:58:43.989Z,97974.50
2022-12-12T23:01:32.491Z,97970.31
2022-12-12T23:04:20.553Z,97965.25
2022-12-12T23:07:08.388Z,97964.44
2022-12-12T23:09:58.933Z,97956.84
2022-12-12T23:12:47.078Z,97951.78
2022-12-12T23:15:42.375Z,97954.31
2022-12-12T23:18:30.343Z,97959.53
2022-12-12T23:21:20.912Z,97949.31
2022-12-12T23:24:09.659Z,97946.84
2022-12-12T23:26:57.673Z,97940.03
2022-12-12T23:29:46.296Z,97942.63
2022-12-12T23:32:35.925Z,97944.47
2022-12-12T23:35:24.005Z,97934.25
2022-12-12T23:38:11.946Z,97940.44
2022-12-12T23:41:04.669Z,97940.53
2022-12-12T23:43:52.751Z,97941.41
2022-12-12T23:46:41.023Z,97940.63
2022-12-12T23:49:30.314Z,97936.41
2022-12-12T23:52:18.300Z,97933.88
2022-12-12T23:55:10.096Z,97934.00
2022-12-12T23:57:58.145Z,97940.03
